Time;durP1;ratioP1;P1;durP2;ratioP2;P2;SDS_P1;SDS_P2;PMS_P1;PMS_P2;Temp;Humidity;BMP_temperature;BMP_pressure;BME280_temperature;BME280_humidity;BME280_pressure;Samples;Min_cycle;Max_cycle;Signal;HPM_P1;HPM_P2
2023/08/05 00:00:44;;;;;;;7.03;4.90;;;;;;;14.69;100.00;101515.72;5036510;28;20032;-70
2023/08/05 00:03:10;;;;;;;6.05;4.20;;;;;;;14.76;100.00;101526.09;5055366;28;20098;-70
2023/08/05 00:05:38;;;;;;;7.15;4.32;;;;;;;14.75;100.00;101522.53;5042910;28;20077;-70
2023/08/05 00:08:06;;;;;;;6.90;4.82;;;;;;;14.72;100.00;101517.38;5035163;28;20025;-71
2023/08/05 00:10:32;;;;;;;7.00;4.53;;;;;;;14.74;100.00;101517.28;5048994;28;20033;-70
2023/08/05 00:12:57;;;;;;;7.40;4.68;;;;;;;14.75;100.00;101521.66;5037241;28;20147;-70
2023/08/05 00:15:23;;;;;;;8.48;4.57;;;;;;;14.74;100.00;101510.09;5051664;28;20020;-70
2023/08/05 00:17:48;;;;;;;6.72;3.88;;;;;;;14.75;100.00;101514.50;5054527;28;20214;-70
2023/08/05 00:20:13;;;;;;;6.43;4.22;;;;;;;14.75;100.00;101509.13;5028756;28;20036;-70
2023/08/05 00:22:39;;;;;;;6.40;4.60;;;;;;;14.73;100.00;101497.66;5040187;28;20029;-70
2023/08/05 00:25:04;;;;;;;7.65;4.82;;;;;;;14.73;100.00;101505.69;5047651;28;20548;-70
2023/08/05 00:27:30;;;;;;;6.60;4.85;;;;;;;14.70;100.00;101508.53;5038001;28;20522;-70
2023/08/05 00:29:55;;;;;;;5.18;4.53;;;;;;;14.67;100.00;101500.66;5045676;28;20026;-70
2023/08/05 00:32:20;;;;;;;5.88;4.80;;;;;;;14.69;100.00;101506.81;5044345;28;20048;-71
2023/08/05 00:34:46;;;;;;;6.25;4.85;;;;;;;14.73;100.00;101511.03;5045483;28;20036;-70
2023/08/05 00:37:11;;;;;;;5.53;4.43;;;;;;;14.74;100.00;101502.06;5053281;28;20557;-70
2023/08/05 00:39:37;;;;;;;6.85;4.43;;;;;;;14.73;100.00;101500.31;5031775;28;20021;-71
2023/08/05 00:42:02;;;;;;;6.30;4.97;;;;;;;14.67;100.00;101493.53;5035596;28;20035;-70
2023/08/05 00:44:28;;;;;;;6.05;4.97;;;;;;;14.67;100.00;101498.88;5036726;28;20720;-70
2023/08/05 00:46:53;;;;;;;7.68;5.00;;;;;;;14.65;100.00;101500.78;5048542;28;20481;-70
2023/08/05 00:49:20;;;;;;;9.98;5.47;;;;;;;14.57;100.00;101481.59;5042384;28;20072;-71
2023/08/05 00:51:45;;;;;;;7.45;5.20;;;;;;;14.62;100.00;101492.91;5053092;28;20449;-71
2023/08/05 00:54:11;;;;;;;8.27;5.22;;;;;;;14.64;100.00;101492.84;5050783;28;20035;-70
2023/08/05 00:56:40;;;;;;;6.05;4.82;;;;;;;14.55;100.00;101479.97;5039384;28;20044;-70
2023/08/05 00:59:05;;;;;;;7.63;5.25;;;;;;;14.53;100.00;101480.03;5043197;28;20044;-70
2023/08/05 01:01:31;;;;;;;5.70;4.93;;;;;;;14.50;100.00;101479.34;5035371;28;20036;-71
2023/08/05 01:03:56;;;;;;;7.55;5.47;;;;;;;14.44;100.00;101475.19;5035457;28;20039;-71
2023/08/05 01:06:24;;;;;;;8.50;5.82;;;;;;;14.45;100.00;101472.41;5043301;28;20088;-70
2023/08/05 01:08:50;;;;;;;8.25;5.50;;;;;;;14.42;100.00;101464.56;5038085;28;20153;-71
2023/08/05 01:11:16;;;;;;;6.85;5.63;;;;;;;14.42;100.00;101459.22;5025279;28;20159;-70
2023/08/05 01:13:42;;;;;;;7.55;5.38;;;;;;;14.39;100.00;101456.69;5055353;28;20035;-70
2023/08/05 01:16:07;;;;;;;7.63;5.50;;;;;;;14.33;100.00;101458.84;5070569;28;20024;-70
2023/08/05 01:18:36;;;;;;;7.65;5.50;;;;;;;14.29;100.00;101458.16;5050735;28;20029;-71
2023/08/05 01:21:03;;;;;;;6.38;5.50;;;;;;;14.25;100.00;101451.25;5030223;28;20036;-70
2023/08/05 01:23:36;;;;;;;7.07;5.80;;;;;;;14.28;100.00;101451.06;5047860;28;20034;-70
2023/08/05 01:26:04;;;;;;;5.90;5.30;;;;;;;14.26;100.00;101457.50;5034481;28;20192;-70
2023/08/05 01:28:30;;;;;;;9.50;5.65;;;;;;;14.23;100.00;101455.84;5045982;28;20119;-70
2023/08/05 01:30:57;;;;;;;8.32;5.43;;;;;;;14.25;100.00;101459.28;5030904;28;20545;-70
2023/08/05 01:33:23;;;;;;;6.78;5.38;;;;;;;14.22;100.00;101450.59;5046189;28;20021;-70
2023/08/05 01:35:49;;;;;;;7.25;5.38;;;;;;;14.24;100.00;101454.03;5035541;28;20082;-72
2023/08/05 01:38:15;;;;;;;6.70;5.47;;;;;;;14.16;100.00;101443.72;5050378;28;20475;-70
2023/08/05 01:40:40;;;;;;;6.68;5.70;;;;;;;14.20;100.00;101450.66;5044315;28;20487;-71
2023/08/05 01:43:07;;;;;;;6.68;5.63;;;;;;;14.19;100.00;101455.13;5044201;28;20155;-71
2023/08/05 01:45:33;;;;;;;7.55;5.97;;;;;;;14.21;100.00;101455.03;5032871;28;20025;-71
2023/08/05 01:47:58;;;;;;;9.27;6.57;;;;;;;14.22;100.00;101454.13;5034917;28;20060;-71
2023/08/05 01:50:24;;;;;;;7.85;5.88;;;;;;;14.19;100.00;101454.28;5052423;28;20101;-70
2023/08/05 01:52:51;;;;;;;8.95;6.75;;;;;;;14.13;100.00;101450.16;5046937;28;20033;-70
2023/08/05 01:55:16;;;;;;;8.30;5.97;;;;;;;14.06;100.00;101443.41;5035521;28;20030;-70
2023/08/05 01:57:42;;;;;;;7.90;7.05;;;;;;;13.98;100.00;101453.66;5053190;28;20035;-70
2023/08/05 02:00:10;;;;;;;8.40;6.68;;;;;;;13.92;100.00;101446.84;5032009;28;20025;-70
2023/08/05 02:02:36;;;;;;;8.77;7.00;;;;;;;13.86;100.00;101451.66;5047366;28;20033;-71
2023/08/05 02:05:01;;;;;;;11.40;8.35;;;;;;;13.75;100.00;101449.56;5047466;28;20655;-70
2023/08/05 02:07:26;;;;;;;9.55;8.10;;;;;;;13.75;100.00;101454.91;5036925;28;20419;-70
2023/08/05 02:09:52;;;;;;;9.80;8.68;;;;;;;13.70;100.00;101460.50;5049792;28;20031;-70
2023/08/05 02:12:17;;;;;;;12.35;9.27;;;;;;;13.66;100.00;101447.38;5034161;28;20107;-71
2023/08/05 02:14:42;;;;;;;9.70;8.70;;;;;;;13.70;100.00;101454.31;5047449;28;20052;-70
2023/08/05 02:17:08;;;;;;;10.35;9.25;;;;;;;13.69;100.00;101452.59;5028081;28;20072;-70
2023/08/05 02:19:33;;;;;;;12.60;8.63;;;;;;;13.67;100.00;101463.38;5044015;28;20096;-70
2023/08/05 02:21:59;;;;;;;10.32;8.95;;;;;;;13.65;100.00;101453.69;5045285;28;20025;-71
2023/08/05 02:24:24;;;;;;;11.25;9.15;;;;;;;13.64;100.00;101460.00;5038520;28;20106;-70
2023/08/05 02:26:49;;;;;;;10.52;9.20;;;;;;;13.67;100.00;101452.69;5035466;28;20509;-70
2023/08/05 02:29:15;;;;;;;12.73;9.40;;;;;;;13.62;100.00;101449.38;5044381;28;20032;-70
2023/08/05 02:31:40;;;;;;;11.10;9.88;;;;;;;13.61;100.00;101447.63;5052235;28;20090;-70
2023/08/05 02:34:05;;;;;;;12.13;9.95;;;;;;;13.57;100.00;101440.72;5033375;28;20058;-70
2023/08/05 02:36:31;;;;;;;10.73;9.60;;;;;;;13.62;100.00;101443.16;5052191;28;20522;-70
2023/08/05 02:38:56;;;;;;;11.27;9.88;;;;;;;13.54;100.00;101446.22;5050949;28;20110;-70
2023/08/05 02:41:21;;;;;;;10.65;9.55;;;;;;;13.49;100.00;101436.75;5048037;28;20123;-70
2023/08/05 02:43:47;;;;;;;11.40;10.00;;;;;;;13.49;100.00;101434.06;5052820;28;20025;-71
2023/08/05 02:46:12;;;;;;;10.73;9.60;;;;;;;13.43;100.00;101420.09;5041151;28;20659;-70
2023/08/05 02:48:37;;;;;;;14.55;10.10;;;;;;;13.45;100.00;101425.34;5043928;28;20494;-70
2023/08/05 02:51:03;;;;;;;10.60;9.50;;;;;;;13.40;100.00;101417.56;5034339;28;20033;-70
2023/08/05 02:53:28;;;;;;;12.15;10.20;;;;;;;13.36;100.00;101412.47;5049220;28;20074;-71
2023/08/05 02:55:54;;;;;;;12.02;10.13;;;;;;;13.32;100.00;101408.22;5033561;28;20091;-71
2023/08/05 02:58:19;;;;;;;12.80;10.65;;;;;;;13.29;100.00;101416.41;5037078;28;20044;-71
2023/08/05 03:00:46;;;;;;;12.25;10.20;;;;;;;13.25;100.00;101418.41;5042070;28;20021;-71
2023/08/05 03:03:13;;;;;;;11.73;10.48;;;;;;;13.26;100.00;101419.25;5039472;28;20295;-71
2023/08/05 03:05:38;;;;;;;14.00;11.15;;;;;;;13.24;100.00;101413.13;5033521;28;20077;-70
2023/08/05 03:08:04;;;;;;;13.88;11.10;;;;;;;13.18;100.00;101420.50;5040323;28;20021;-70
2023/08/05 03:10:29;;;;;;;11.60;10.40;;;;;;;13.19;100.00;101418.69;5051587;28;20361;-70
2023/08/05 03:12:55;;;;;;;11.75;10.55;;;;;;;13.17;100.00;101417.91;5038844;28;20032;-70
2023/08/05 03:15:20;;;;;;;12.23;10.63;;;;;;;13.13;100.00;101398.50;5035813;28;20548;-71
2023/08/05 03:17:45;;;;;;;11.48;10.35;;;;;;;13.10;100.00;101400.47;5044304;28;20510;-71
2023/08/05 03:20:23;;;;;;;13.52;11.18;;;;;;;13.09;100.00;101396.94;5042645;28;20242;-70
2023/08/05 03:22:48;;;;;;;11.73;10.38;;;;;;;13.08;100.00;101400.50;5044905;28;20139;-71
2023/08/05 03:25:14;;;;;;;12.50;11.20;;;;;;;13.03;100.00;101396.38;5041682;28;20112;-70
2023/08/05 03:27:39;;;;;;;11.82;10.63;;;;;;;13.00;100.00;101394.75;5033667;28;20041;-70
2023/08/05 03:30:05;;;;;;;12.40;11.10;;;;;;;13.02;100.00;101397.31;5040655;28;20068;-70
2023/08/05 03:32:31;;;;;;;14.25;10.52;;;;;;;12.99;100.00;101395.66;5024615;28;20695;-70
2023/08/05 03:34:56;;;;;;;13.80;10.88;;;;;;;13.01;100.00;101398.28;5041652;28;20041;-70
2023/08/05 03:37:21;;;;;;;16.42;11.02;;;;;;;12.90;100.00;101390.81;5040560;28;20642;-70
2023/08/05 03:39:48;;;;;;;12.57;11.20;;;;;;;12.91;100.00;101382.69;5045767;28;20056;-70
2023/08/05 03:42:13;;;;;;;12.82;11.43;;;;;;;12.90;100.00;101375.63;5059608;28;20024;-71
2023/08/05 03:44:39;;;;;;;13.13;11.82;;;;;;;12.90;100.00;101377.44;5043073;28;20091;-71
2023/08/05 03:47:04;;;;;;;12.43;10.95;;;;;;;12.86;100.00;101382.06;5037548;28;20120;-70
2023/08/05 03:49:29;;;;;;;12.50;11.07;;;;;;;12.84;100.00;101373.28;5042979;28;20030;-70
2023/08/05 03:51:55;;;;;;;13.23;11.32;;;;;;;12.83;100.00;101370.69;5033702;28;20484;-70
2023/08/05 03:54:20;;;;;;;12.88;11.27;;;;;;;12.77;100.00;101369.19;5053043;28;20036;-70
2023/08/05 03:56:45;;;;;;;14.15;11.73;;;;;;;12.75;100.00;101357.75;5053138;28;20040;-71
2023/08/05 03:59:11;;;;;;;14.82;11.32;;;;;;;12.67;100.00;101350.13;5048899;28;20033;-70
2023/08/05 04:01:37;;;;;;;15.27;10.98;;;;;;;12.72;100.00;101357.91;5054529;28;20082;-70
2023/08/05 04:04:03;;;;;;;13.48;11.52;;;;;;;12.71;100.00;101362.38;5041395;28;20075;-70
2023/08/05 04:06:28;;;;;;;13.57;11.68;;;;;;;12.73;100.00;101356.09;5045046;28;20036;-70
2023/08/05 04:08:54;;;;;;;13.75;11.23;;;;;;;12.71;100.00;101343.69;5033065;28;20040;-70
2023/08/05 04:11:20;;;;;;;14.73;11.35;;;;;;;12.73;100.00;101345.41;5033899;28;20438;-70
2023/08/05 04:13:45;;;;;;;13.45;11.25;;;;;;;12.78;100.00;101354.88;5051329;28;20036;-70
2023/08/05 04:16:11;;;;;;;13.35;11.95;;;;;;;12.75;100.00;101348.84;5041973;28;20031;-70
2023/08/05 04:18:38;;;;;;;13.35;11.88;;;;;;;12.77;100.00;101350.50;5026230;28;20037;-70
2023/08/05 04:21:04;;;;;;;13.88;11.93;;;;;;;12.79;100.00;101342.41;5047295;28;20028;-70
2023/08/05 04:23:32;;;;;;;13.35;10.98;;;;;;;12.81;100.00;101343.19;5049142;28;20063;-70
2023/08/05 04:25:59;;;;;;;13.48;11.60;;;;;;;12.79;100.00;101353.09;5041136;28;20723;-71
2023/08/05 04:28:25;;;;;;;14.23;10.63;;;;;;;12.76;100.00;101340.78;5039393;28;20037;-70
2023/08/05 04:30:52;;;;;;;12.70;11.38;;;;;;;12.79;100.00;101326.38;5048506;28;20028;-70
2023/08/05 04:33:17;;;;;;;13.27;10.93;;;;;;;12.82;100.00;101308.38;5037716;28;20025;-70
2023/08/05 04:35:49;;;;;;;12.40;11.07;;;;;;;12.82;100.00;101303.03;5042293;28;20035;-70
2023/08/05 04:38:18;;;;;;;12.50;10.88;;;;;;;12.89;100.00;101309.78;5026762;28;20640;-70
2023/08/05 04:40:44;;;;;;;12.98;11.65;;;;;;;12.92;100.00;101308.78;5036521;28;20071;-71
2023/08/05 04:43:09;;;;;;;12.20;10.88;;;;;;;12.94;100.00;101302.38;5046923;28;20056;-70
2023/08/05 04:45:35;;;;;;;13.15;11.45;;;;;;;12.99;100.00;101304.81;5040389;28;20490;-70
2023/08/05 04:48:01;;;;;;;12.32;11.13;;;;;;;13.00;100.00;101303.88;5039274;28;20110;-70
2023/08/05 04:50:27;;;;;;;12.63;10.77;;;;;;;13.00;100.00;101303.00;5047339;28;20474;-70
2023/08/05 04:52:53;;;;;;;14.85;11.60;;;;;;;12.99;100.00;101302.13;5044267;28;20028;-71
2023/08/05 04:55:18;;;;;;;13.90;11.40;;;;;;;13.03;100.00;101301.03;5043477;28;20024;-70
2023/08/05 04:57:46;;;;;;;14.30;11.63;;;;;;;13.06;100.00;101308.03;5042414;28;20037;-71
2023/08/05 05:00:11;;;;;;;12.23;10.93;;;;;;;13.05;100.00;101303.63;5040169;28;20056;-71
2023/08/05 05:02:40;;;;;;;12.20;10.85;;;;;;;13.10;100.00;101296.22;5041610;28;20380;-71
2023/08/05 05:05:06;;;;;;;12.68;10.85;;;;;;;13.16;100.00;101301.22;5036703;28;20030;-71
2023/08/05 05:07:31;;;;;;;12.82;11.52;;;;;;;13.09;100.00;101299.84;5022996;28;20061;-71
2023/08/05 05:09:57;;;;;;;12.23;10.52;;;;;;;13.16;100.00;101303.91;5030577;28;20221;-70
2023/08/05 05:12:22;;;;;;;11.52;9.98;;;;;;;13.16;100.00;101294.06;5057366;28;20036;-70
2023/08/05 05:14:47;;;;;;;12.65;10.50;;;;;;;13.15;100.00;101292.34;5042548;28;20025;-71
2023/08/05 05:17:16;;;;;;;14.90;10.25;;;;;;;13.19;100.00;101298.41;5045960;28;20032;-70
2023/08/05 05:19:43;;;;;;;11.38;10.18;;;;;;;13.25;100.00;101297.22;5047861;28;20032;-70
2023/08/05 05:22:10;;;;;;;14.43;9.82;;;;;;;13.29;100.00;101296.09;5042567;28;20028;-71
2023/08/05 05:24:35;;;;;;;11.90;10.00;;;;;;;13.32;100.00;101291.47;5038820;28;20040;-71
2023/08/05 05:27:01;;;;;;;12.60;10.18;;;;;;;13.37;100.00;101294.72;5040896;28;20082;-70
2023/08/05 05:29:30;;;;;;;14.18;11.07;;;;;;;13.43;100.00;101297.09;5043731;28;20549;-70
2023/08/05 05:31:55;;;;;;;11.05;9.90;;;;;;;13.48;100.00;101293.28;5040520;28;20033;-71
2023/08/05 05:34:20;;;;;;;12.82;10.13;;;;;;;13.51;100.00;101285.97;5047249;28;20029;-71
2023/08/05 05:36:46;;;;;;;11.82;10.07;;;;;;;13.55;100.00;101275.97;5040268;28;20018;-71
2023/08/05 05:39:11;;;;;;;11.43;9.52;;;;;;;13.61;100.00;101278.28;5056508;28;20028;-71
2023/08/05 05:41:37;;;;;;;11.38;10.20;;;;;;;13.74;100.00;101290.00;5035886;28;20076;-71
2023/08/05 05:44:04;;;;;;;11.48;10.25;;;;;;;13.69;100.00;101268.88;5030005;28;20032;-71
2023/08/05 05:46:32;;;;;;;11.73;9.85;;;;;;;13.84;100.00;101285.00;5034852;28;20553;-70
2023/08/05 05:48:57;;;;;;;12.90;9.68;;;;;;;13.80;100.00;101276.28;5056736;28;20063;-71
2023/08/05 05:51:23;;;;;;;10.90;9.77;;;;;;;13.89;100.00;101278.44;5044566;28;20044;-71
2023/08/05 05:53:50;;;;;;;12.02;9.70;;;;;;;14.01;100.00;101287.56;5029556;28;20518;-71
2023/08/05 05:56:16;;;;;;;10.95;9.85;;;;;;;14.23;100.00;101289.84;5069769;28;20029;-71
2023/08/05 05:58:41;;;;;;;11.73;10.02;;;;;;;14.58;100.00;101278.84;5034899;28;20026;-71
2023/08/05 06:01:07;;;;;;;11.98;9.40;;;;;;;14.94;100.00;101286.47;5041221;28;20465;-71
2023/08/05 06:03:33;;;;;;;10.25;9.15;;;;;;;15.33;100.00;101280.41;5053988;28;20024;-71
2023/08/05 06:05:59;;;;;;;10.88;9.27;;;;;;;15.64;100.00;101283.81;5046221;28;20111;-71
2023/08/05 06:08:24;;;;;;;9.52;8.35;;;;;;;15.99;100.00;101280.66;5043399;28;20445;-71
2023/08/05 06:10:51;;;;;;;10.35;8.57;;;;;;;16.33;100.00;101280.09;5051369;28;20029;-71
2023/08/05 06:13:16;;;;;;;10.32;8.10;;;;;;;16.52;100.00;101273.47;5041679;28;20155;-71
2023/08/05 06:15:42;;;;;;;8.52;7.63;;;;;;;16.69;100.00;101265.09;5042702;28;20097;-71
2023/08/05 06:18:11;;;;;;;8.93;8.02;;;;;;;16.79;100.00;101265.34;5035988;28;20514;-70
2023/08/05 06:20:36;;;;;;;8.20;7.30;;;;;;;16.85;100.00;101273.00;5051841;28;20025;-71
2023/08/05 06:23:02;;;;;;;9.02;7.25;;;;;;;16.85;100.00;101273.84;5051660;28;20064;-71
2023/08/05 06:25:28;;;;;;;10.23;7.25;;;;;;;16.79;100.00;101266.19;5031236;28;20446;-71
2023/08/05 06:27:53;;;;;;;9.10;7.65;;;;;;;16.72;100.00;101267.59;5043568;28;20470;-71
2023/08/05 06:30:19;;;;;;;8.23;7.20;;;;;;;16.59;100.00;101262.19;5048752;28;20022;-71
2023/08/05 06:32:44;;;;;;;9.45;7.15;;;;;;;16.51;100.00;101261.00;5041462;28;20031;-71
2023/08/05 06:35:09;;;;;;;7.78;6.80;;;;;;;16.48;100.00;101263.91;5038880;28;20044;-71
2023/08/05 06:37:35;;;;;;;8.05;6.35;;;;;;;16.38;100.00;101251.09;5032258;28;20040;-72
2023/08/05 06:40:00;;;;;;;7.15;6.45;;;;;;;16.30;100.00;101250.78;5023977;28;20120;-72
2023/08/05 06:42:25;;;;;;;7.93;6.40;;;;;;;16.29;100.00;101259.78;5034506;28;20033;-72
2023/08/05 06:44:51;;;;;;;8.15;6.28;;;;;;;16.32;100.00;101258.72;5039701;28;20104;-72
2023/08/05 06:47:17;;;;;;;8.73;6.90;;;;;;;16.36;100.00;101252.16;5030994;28;20044;-72
2023/08/05 06:49:42;;;;;;;8.07;6.35;;;;;;;16.37;100.00;101248.50;5036925;28;20034;-72
2023/08/05 06:52:07;;;;;;;9.48;6.68;;;;;;;16.39;100.00;101252.81;5024089;28;20013;-72
2023/08/05 06:54:33;;;;;;;8.02;6.53;;;;;;;16.48;100.00;101245.09;5049620;28;20458;-72
2023/08/05 06:56:59;;;;;;;8.40;6.63;;;;;;;16.44;100.00;101239.94;5023777;28;20033;-72
2023/08/05 06:59:24;;;;;;;9.65;6.05;;;;;;;16.50;100.00;101235.94;5032349;28;20025;-72
2023/08/05 07:01:49;;;;;;;9.02;6.43;;;;;;;16.56;100.00;101238.22;5030249;28;20022;-72
2023/08/05 07:04:15;;;;;;;7.80;6.50;;;;;;;16.61;100.00;101243.28;5030331;28;20058;-72
2023/08/05 07:06:42;;;;;;;7.93;5.97;;;;;;;16.68;100.00;101242.75;5035384;28;20495;-72
2023/08/05 07:09:08;;;;;;;7.68;6.00;;;;;;;16.93;100.00;101233.84;5023756;28;20037;-71
2023/08/05 07:11:35;;;;;;;7.63;6.25;;;;;;;17.14;100.00;101231.44;5044868;28;20025;-71
2023/08/05 07:14:00;;;;;;;6.13;5.32;;;;;;;17.41;100.00;101216.94;5030964;28;20178;-71
2023/08/05 07:16:26;;;;;;;6.47;4.15;;;;;;;17.52;100.00;101218.84;5039026;28;20412;-71
2023/08/05 07:18:52;;;;;;;5.53;4.00;;;;;;;17.53;99.07;101225.94;5033019;28;20060;-71
2023/08/05 07:21:18;;;;;;;5.85;4.32;;;;;;;17.40;97.56;101218.78;5038469;28;20066;-71
2023/08/05 07:23:43;;;;;;;5.40;4.38;;;;;;;17.52;98.24;101218.84;5038991;28;20029;-71
2023/08/05 07:26:09;;;;;;;5.68;4.57;;;;;;;17.62;97.19;101222.56;5022742;28;20087;-71
2023/08/05 07:28:34;;;;;;;7.97;4.38;;;;;;;17.88;96.30;101226.88;5033561;28;20025;-70
2023/08/05 07:31:04;;;;;;;7.07;5.28;;;;;;;18.16;95.08;101232.88;5022965;28;20353;-71
2023/08/05 07:33:30;;;;;;;5.60;4.40;;;;;;;18.26;92.04;101215.00;5030004;28;20503;-71
2023/08/05 07:35:56;;;;;;;6.82;4.80;;;;;;;18.56;91.28;101219.88;5031780;28;20043;-70
2023/08/05 07:38:25;;;;;;;4.53;4.13;;;;;;;18.70;89.06;101223.34;5033619;28;20501;-70
2023/08/05 07:40:54;;;;;;;5.35;4.38;;;;;;;18.71;87.90;101215.13;5040272;28;20589;-70
2023/08/05 07:43:23;;;;;;;5.10;4.43;;;;;;;18.75;87.68;101213.91;5059408;28;20029;-71
2023/08/05 07:45:49;;;;;;;4.80;4.30;;;;;;;18.76;87.60;101207.50;5031373;28;20075;-71
2023/08/05 07:48:14;;;;;;;5.32;4.30;;;;;;;18.92;86.72;101210.72;5028746;28;20495;-71
2023/08/05 07:50:40;;;;;;;5.10;4.60;;;;;;;19.22;85.48;101203.81;5052692;28;20041;-71
2023/08/05 07:53:05;;;;;;;6.80;4.32;;;;;;;19.38;84.74;101198.88;5029647;28;20421;-70
2023/08/05 07:55:32;;;;;;;5.07;4.10;;;;;;;20.34;81.38;101195.31;5030652;28;20353;-70
2023/08/05 07:57:58;;;;;;;5.97;4.13;;;;;;;21.33;76.74;101191.09;5038047;28;20049;-71
2023/08/05 08:00:26;;;;;;;5.00;3.55;;;;;;;22.10;73.61;101186.72;5046293;28;20016;-70
2023/08/05 08:02:51;;;;;;;4.18;3.55;;;;;;;22.60;72.05;101186.50;5048552;28;20039;-70
2023/08/05 08:05:17;;;;;;;6.72;3.95;;;;;;;22.81;70.28;101180.84;5052277;28;20029;-71
2023/08/05 08:07:46;;;;;;;4.47;3.47;;;;;;;23.04;68.33;101181.34;5038668;28;20107;-71
2023/08/05 08:10:12;;;;;;;5.70;3.80;;;;;;;23.23;66.85;101183.94;5039807;28;20312;-71
2023/08/05 08:12:37;;;;;;;4.68;3.55;;;;;;;22.65;66.91;101175.19;5035075;28;20451;-71
2023/08/05 08:15:03;;;;;;;3.95;3.65;;;;;;;22.13;69.73;101181.03;5036824;28;20024;-71
2023/08/05 08:17:28;;;;;;;3.63;3.30;;;;;;;22.91;67.54;101165.41;5027441;28;20205;-71
2023/08/05 08:19:54;;;;;;;3.70;3.40;;;;;;;23.17;63.61;101165.56;5043225;28;20442;-72
2023/08/05 08:22:19;;;;;;;3.38;2.88;;;;;;;23.04;64.97;101155.06;5029634;28;20016;-71
2023/08/05 08:24:44;;;;;;;3.97;2.85;;;;;;;22.67;67.16;101156.91;5037927;28;20363;-71
2023/08/05 08:27:10;;;;;;;3.78;2.30;;;;;;;22.43;67.17;101157.44;5031416;28;20518;-71
2023/08/05 08:29:35;;;;;;;3.38;2.53;;;;;;;22.48;66.35;101153.25;5047790;28;20107;-71
2023/08/05 08:32:01;;;;;;;2.70;2.17;;;;;;;22.16;66.04;101150.94;5027041;28;20525;-71
2023/08/05 08:34:26;;;;;;;3.03;2.28;;;;;;;21.31;67.37;101152.44;5031502;28;20029;-71
2023/08/05 08:36:51;;;;;;;2.80;2.40;;;;;;;20.65;70.00;101149.41;5039410;28;20136;-71
2023/08/05 08:39:17;;;;;;;3.05;2.58;;;;;;;20.24;72.28;101145.75;5027923;28;20486;-72
2023/08/05 08:41:45;;;;;;;3.65;2.80;;;;;;;20.07;72.80;101140.94;5044355;28;20406;-71
2023/08/05 08:44:11;;;;;;;3.38;3.08;;;;;;;20.37;71.85;101134.72;5031363;28;20473;-71
2023/08/05 08:46:37;;;;;;;3.25;2.35;;;;;;;21.57;69.75;101124.81;5044553;28;20041;-72
2023/08/05 08:49:03;;;;;;;3.65;2.50;;;;;;;22.79;64.54;101123.16;5048710;28;20110;-72
2023/08/05 08:51:29;;;;;;;3.70;2.00;;;;;;;23.89;63.49;101111.25;5044262;28;20040;-71
2023/08/05 08:53:55;;;;;;;2.53;1.90;;;;;;;25.37;59.16;101109.09;5036509;28;20073;-72
2023/08/05 08:56:21;;;;;;;3.15;1.88;;;;;;;26.81;52.92;101110.16;5054086;28;20036;-72
2023/08/05 08:58:46;;;;;;;1.75;1.63;;;;;;;26.99;50.74;101107.16;5043217;28;20036;-71
2023/08/05 09:01:16;;;;;;;2.42;1.60;;;;;;;26.76;51.14;101106.28;5051844;28;20025;-71
2023/08/05 09:03:43;;;;;;;2.10;1.65;;;;;;;25.78;50.80;101104.56;5045745;28;20044;-72
2023/08/05 09:06:11;;;;;;;2.10;1.65;;;;;;;24.28;54.58;101104.38;5039272;28;20082;-72
2023/08/05 09:08:37;;;;;;;2.42;1.92;;;;;;;23.13;58.17;101100.84;5035937;28;20112;-72
2023/08/05 09:11:02;;;;;;;2.05;1.83;;;;;;;22.39;60.69;101102.63;5035534;28;20477;-72
2023/08/05 09:13:28;;;;;;;2.83;1.80;;;;;;;21.95;61.75;101099.59;5032146;28;20645;-73
2023/08/05 09:15:54;;;;;;;2.95;2.20;;;;;;;21.41;63.81;101092.94;5041135;28;20514;-72
2023/08/05 09:18:20;;;;;;;2.75;2.08;;;;;;;21.09;66.39;101088.56;5036597;28;20033;-72
2023/08/05 09:20:49;;;;;;;3.13;2.10;;;;;;;20.65;66.88;101089.91;5041324;28;20501;-72
2023/08/05 09:23:15;;;;;;;2.60;2.22;;;;;;;20.44;68.15;101068.31;5048337;28;20448;-72
2023/08/05 09:25:45;;;;;;;2.70;2.22;;;;;;;20.37;69.11;101076.09;5053451;28;20425;-72
2023/08/05 09:28:11;;;;;;;3.00;2.30;;;;;;;20.31;69.64;101075.78;5038991;28;20425;-72
2023/08/05 09:30:36;;;;;;;3.13;2.40;;;;;;;20.33;67.80;101065.69;5032077;28;20030;-72
2023/08/05 09:33:02;;;;;;;3.60;2.50;;;;;;;20.53;67.88;101058.56;5025081;28;20117;-72
2023/08/05 09:35:29;;;;;;;3.80;2.40;;;;;;;21.34;65.24;101043.03;5046975;28;20079;-72
2023/08/05 09:37:54;;;;;;;2.80;2.15;;;;;;;22.32;62.84;101044.53;5058585;28;20371;-72
2023/08/05 09:40:32;;;;;;;3.17;2.20;;;;;;;22.96;61.52;101049.09;5036776;28;20052;-72
2023/08/05 09:42:59;;;;;;;3.80;2.30;;;;;;;22.46;60.59;101045.94;5025037;28;20025;-72
2023/08/05 09:45:27;;;;;;;2.65;1.95;;;;;;;22.03;64.11;101044.63;5024686;28;20108;-72
2023/08/05 09:48:06;;;;;;;2.53;2.25;;;;;;;21.39;64.49;101035.34;5024613;28;20076;-72
2023/08/05 09:50:37;;;;;;;2.58;2.30;;;;;;;20.91;67.54;101043.41;5024826;28;20099;-72
2023/08/05 09:53:06;;;;;;;2.58;2.10;;;;;;;20.43;68.88;101035.97;5028149;28;20029;-72
2023/08/05 09:55:33;;;;;;;5.00;2.50;;;;;;;20.18;70.56;101032.75;5033733;28;20411;-72
2023/08/05 09:57:58;;;;;;;2.88;2.40;;;;;;;20.06;71.11;101028.44;5042124;28;20020;-72
2023/08/05 10:00:24;;;;;;;3.85;2.78;;;;;;;20.13;72.47;101026.91;5039469;28;20025;-72
2023/08/05 10:02:51;;;;;;;3.10;2.70;;;;;;;20.43;73.12;101027.88;5024775;28;20161;-72
2023/08/05 10:05:16;;;;;;;3.25;2.65;;;;;;;21.19;69.56;101011.94;5034827;28;20033;-72
2023/08/05 10:07:42;;;;;;;4.00;2.60;;;;;;;21.22;67.97;100996.28;5031957;28;20426;-72
2023/08/05 10:10:16;;;;;;;4.28;3.13;;;;;;;20.89;69.62;101011.06;5038839;28;20115;-72
2023/08/05 10:12:56;;;;;;;3.67;3.38;;;;;;;20.59;70.82;101003.91;5025301;28;20056;-71
2023/08/05 10:15:35;;;;;;;4.72;3.28;;;;;;;20.43;70.64;101008.94;5024224;28;20029;-72
2023/08/05 10:18:00;;;;;;;3.70;3.28;;;;;;;20.35;72.01;101001.53;5037806;28;20026;-72
2023/08/05 10:20:26;;;;;;;4.80;3.45;;;;;;;20.03;71.82;101001.69;5025312;28;20044;-71
2023/08/05 10:23:09;;;;;;;6.03;3.35;;;;;;;19.69;75.06;101001.94;5024649;28;20028;-72
2023/08/05 10:25:49;;;;;;;6.55;3.50;;;;;;;19.40;77.20;100983.69;5033597;28;20036;-72
2023/08/05 10:28:23;;;;;;;5.35;3.67;;;;;;;19.31;77.44;100994.38;5042032;28;20024;-72
2023/08/05 10:30:49;;;;;;;5.25;3.80;;;;;;;19.21;78.48;100997.03;5023784;28;20052;-72
2023/08/05 10:33:15;;;;;;;6.90;4.28;;;;;;;19.22;78.03;100990.63;5024171;28;20356;-72
2023/08/05 10:35:42;;;;;;;6.30;4.45;;;;;;;19.37;79.31;100992.03;5023976;28;20782;-72
2023/08/05 10:38:15;;;;;;;5.15;4.05;;;;;;;19.70;74.11;100987.47;5024616;28;20021;-72
2023/08/05 10:40:43;;;;;;;4.32;3.92;;;;;;;19.82;70.81;100991.78;5023987;28;20629;-72
2023/08/05 10:43:12;;;;;;;4.90;3.95;;;;;;;19.91;71.48;100979.31;5033826;28;20037;-72
2023/08/05 10:45:42;;;;;;;5.22;3.67;;;;;;;20.22;70.22;100985.53;5051429;28;20021;-73
2023/08/05 10:48:10;;;;;;;4.63;3.50;;;;;;;20.52;67.24;100987.38;5038253;28;20049;-72
2023/08/05 10:50:41;;;;;;;5.50;3.38;;;;;;;21.35;64.80;100991.44;5024122;28;20147;-73
2023/08/05 10:53:10;;;;;;;3.13;2.83;;;;;;;21.95;62.44;100974.06;5024410;28;20031;-72
2023/08/05 10:55:58;;;;;;;3.28;2.92;;;;;;;22.98;61.29;100972.94;5053470;28;20075;-72
2023/08/05 10:58:27;;;;;;;4.90;2.55;;;;;;;23.89;57.42;100965.31;5037521;28;20147;-72
2023/08/05 11:01:00;;;;;;;4.05;2.50;;;;;;;24.23;55.22;100965.31;5035159;28;20021;-73
2023/08/05 11:03:28;;;;;;;5.03;3.13;;;;;;;24.23;53.98;100961.75;5023458;28;20594;-72
2023/08/05 11:05:54;;;;;;;2.47;2.20;;;;;;;24.30;53.92;100958.19;5036689;28;20028;-72
2023/08/05 11:08:21;;;;;;;4.35;2.90;;;;;;;24.47;54.18;100964.59;5023403;28;20033;-72
2023/08/05 11:10:50;;;;;;;3.33;2.38;;;;;;;24.09;54.51;100969.50;5026248;28;20565;-73